sensor_id;sensor_type;location;lat;lon;timestamp;P1;durP1;ratioP1;P2;durP2;ratioP2
77798;SDS011;66989;50.426;15.352;2023-08-17T00:00:58;3.65;;;2.65;;
77798;SDS011;66989;50.426;15.352;2023-08-17T00:03:24;4.63;;;3.58;;
77798;SDS011;66989;50.426;15.352;2023-08-17T00:05:49;3.20;;;2.37;;
77798;SDS011;66989;50.426;15.352;2023-08-17T00:08:14;4.40;;;2.40;;
77798;SDS011;66989;50.426;15.352;2023-08-17T00:10:40;6.20;;;2.92;;
77798;SDS011;66989;50.426;15.352;2023-08-17T00:13:05;3.47;;;3.15;;
77798;SDS011;66989;50.426;15.352;2023-08-17T00:15:30;5.50;;;3.77;;
77798;SDS011;66989;50.426;15.352;2023-08-17T00:17:57;5.88;;;4.50;;
77798;SDS011;66989;50.426;15.352;2023-08-17T00:20:22;5.90;;;4.73;;
77798;SDS011;66989;50.426;15.352;2023-08-17T00:22:47;5.97;;;5.35;;
77798;SDS011;66989;50.426;15.352;2023-08-17T00:25:13;7.15;;;5.75;;
77798;SDS011;66989;50.426;15.352;2023-08-17T00:27:39;8.73;;;5.82;;
77798;SDS011;66989;50.426;15.352;2023-08-17T00:30:04;7.68;;;6.07;;
77798;SDS011;66989;50.426;15.352;2023-08-17T00:32:30;7.97;;;7.05;;
77798;SDS011;66989;50.426;15.352;2023-08-17T00:34:55;7.88;;;7.03;;
77798;SDS011;66989;50.426;15.352;2023-08-17T00:37:21;8.23;;;6.18;;
77798;SDS011;66989;50.426;15.352;2023-08-17T00:39:46;7.57;;;6.83;;
77798;SDS011;66989;50.426;15.352;2023-08-17T00:42:11;9.18;;;6.78;;
77798;SDS011;66989;50.426;15.352;2023-08-17T00:44:37;8.20;;;7.03;;
77798;SDS011;66989;50.426;15.352;2023-08-17T00:47:02;8.35;;;7.55;;
77798;SDS011;66989;50.426;15.352;2023-08-17T00:49:29;7.05;;;6.35;;
77798;SDS011;66989;50.426;15.352;2023-08-17T00:51:55;6.45;;;5.53;;
77798;SDS011;66989;50.426;15.352;2023-08-17T00:56:48;8.10;;;5.82;;
77798;SDS011;66989;50.426;15.352;2023-08-17T00:59:14;6.03;;;5.35;;
77798;SDS011;66989;50.426;15.352;2023-08-17T01:01:40;5.28;;;4.63;;
77798;SDS011;66989;50.426;15.352;2023-08-17T01:04:05;14.50;;;5.65;;
77798;SDS011;66989;50.426;15.352;2023-08-17T01:06:30;6.78;;;3.95;;
77798;SDS011;66989;50.426;15.352;2023-08-17T01:08:56;5.50;;;4.23;;
77798;SDS011;66989;50.426;15.352;2023-08-17T01:11:24;5.75;;;3.90;;
77798;SDS011;66989;50.426;15.352;2023-08-17T01:14:00;6.18;;;4.07;;
77798;SDS011;66989;50.426;15.352;2023-08-17T01:16:34;5.80;;;5.20;;
77798;SDS011;66989;50.426;15.352;2023-08-17T01:19:07;5.28;;;4.78;;
77798;SDS011;66989;50.426;15.352;2023-08-17T01:21:41;5.53;;;4.68;;
77798;SDS011;66989;50.426;15.352;2023-08-17T01:24:09;5.63;;;3.85;;
77798;SDS011;66989;50.426;15.352;2023-08-17T01:26:36;7.40;;;4.43;;
77798;SDS011;66989;50.426;15.352;2023-08-17T01:29:01;6.40;;;5.32;;
77798;SDS011;66989;50.426;15.352;2023-08-17T01:31:31;6.25;;;5.70;;
77798;SDS011;66989;50.426;15.352;2023-08-17T01:34:07;5.45;;;4.45;;
77798;SDS011;66989;50.426;15.352;2023-08-17T01:36:40;5.18;;;4.15;;
77798;SDS011;66989;50.426;15.352;2023-08-17T01:39:10;7.18;;;4.07;;
77798;SDS011;66989;50.426;15.352;2023-08-17T01:41:37;6.68;;;5.63;;
77798;SDS011;66989;50.426;15.352;2023-08-17T01:44:03;6.03;;;5.45;;
77798;SDS011;66989;50.426;15.352;2023-08-17T01:46:30;7.40;;;6.22;;
77798;SDS011;66989;50.426;15.352;2023-08-17T01:48:57;7.93;;;5.65;;
77798;SDS011;66989;50.426;15.352;2023-08-17T01:51:22;7.72;;;6.40;;
77798;SDS011;66989;50.426;15.352;2023-08-17T01:53:48;8.98;;;6.25;;
77798;SDS011;66989;50.426;15.352;2023-08-17T01:56:14;6.45;;;5.35;;
77798;SDS011;66989;50.426;15.352;2023-08-17T01:58:39;8.55;;;6.03;;
77798;SDS011;66989;50.426;15.352;2023-08-17T02:01:05;9.23;;;7.00;;
77798;SDS011;66989;50.426;15.352;2023-08-17T02:03:32;7.88;;;6.55;;
77798;SDS011;66989;50.426;15.352;2023-08-17T02:05:58;5.88;;;5.13;;
77798;SDS011;66989;50.426;15.352;2023-08-17T02:08:24;6.63;;;5.80;;
77798;SDS011;66989;50.426;15.352;2023-08-17T02:10:50;6.22;;;5.63;;
77798;SDS011;66989;50.426;15.352;2023-08-17T02:13:15;7.85;;;6.55;;
77798;SDS011;66989;50.426;15.352;2023-08-17T02:15:41;7.38;;;5.70;;
77798;SDS011;66989;50.426;15.352;2023-08-17T02:18:07;7.50;;;6.53;;
77798;SDS011;66989;50.426;15.352;2023-08-17T02:20:33;6.63;;;6.00;;
77798;SDS011;66989;50.426;15.352;2023-08-17T02:22:59;8.30;;;5.95;;
77798;SDS011;66989;50.426;15.352;2023-08-17T02:25:24;9.18;;;7.25;;
77798;SDS011;66989;50.426;15.352;2023-08-17T02:27:49;7.50;;;6.63;;
77798;SDS011;66989;50.426;15.352;2023-08-17T02:30:15;7.05;;;6.35;;
77798;SDS011;66989;50.426;15.352;2023-08-17T02:32:40;9.77;;;6.63;;
77798;SDS011;66989;50.426;15.352;2023-08-17T02:35:06;7.88;;;6.28;;
77798;SDS011;66989;50.426;15.352;2023-08-17T02:37:32;8.68;;;7.57;;
77798;SDS011;66989;50.426;15.352;2023-08-17T02:39:57;7.90;;;7.15;;
77798;SDS011;66989;50.426;15.352;2023-08-17T02:42:23;8.68;;;7.40;;
77798;SDS011;66989;50.426;15.352;2023-08-17T02:44:48;8.32;;;7.43;;
77798;SDS011;66989;50.426;15.352;2023-08-17T02:47:14;8.50;;;6.47;;
77798;SDS011;66989;50.426;15.352;2023-08-17T02:49:39;9.93;;;8.18;;
77798;SDS011;66989;50.426;15.352;2023-08-17T02:52:05;10.10;;;7.18;;
77798;SDS011;66989;50.426;15.352;2023-08-17T02:54:30;7.53;;;6.70;;
77798;SDS011;66989;50.426;15.352;2023-08-17T02:56:56;8.25;;;6.43;;
77798;SDS011;66989;50.426;15.352;2023-08-17T02:59:22;7.47;;;6.38;;
77798;SDS011;66989;50.426;15.352;2023-08-17T03:01:47;7.35;;;6.30;;
77798;SDS011;66989;50.426;15.352;2023-08-17T03:04:13;7.65;;;6.72;;
77798;SDS011;66989;50.426;15.352;2023-08-17T03:06:39;7.95;;;7.15;;
77798;SDS011;66989;50.426;15.352;2023-08-17T03:09:04;7.57;;;6.35;;
77798;SDS011;66989;50.426;15.352;2023-08-17T03:11:29;7.90;;;7.10;;
77798;SDS011;66989;50.426;15.352;2023-08-17T03:13:55;9.07;;;6.00;;
77798;SDS011;66989;50.426;15.352;2023-08-17T03:16:25;6.50;;;5.80;;
77798;SDS011;66989;50.426;15.352;2023-08-17T03:18:51;7.18;;;5.47;;
77798;SDS011;66989;50.426;15.352;2023-08-17T03:21:17;6.93;;;6.22;;
77798;SDS011;66989;50.426;15.352;2023-08-17T03:23:43;6.88;;;5.43;;
77798;SDS011;66989;50.426;15.352;2023-08-17T03:26:09;6.72;;;5.05;;
77798;SDS011;66989;50.426;15.352;2023-08-17T03:28:34;8.30;;;5.40;;
77798;SDS011;66989;50.426;15.352;2023-08-17T03:31:00;7.25;;;5.80;;
77798;SDS011;66989;50.426;15.352;2023-08-17T03:33:26;8.38;;;6.32;;
77798;SDS011;66989;50.426;15.352;2023-08-17T03:35:52;6.38;;;5.57;;
77798;SDS011;66989;50.426;15.352;2023-08-17T03:38:17;6.63;;;5.93;;
77798;SDS011;66989;50.426;15.352;2023-08-17T03:40:43;7.20;;;6.57;;
77798;SDS011;66989;50.426;15.352;2023-08-17T03:43:08;6.35;;;5.70;;
77798;SDS011;66989;50.426;15.352;2023-08-17T03:45:34;7.60;;;4.22;;
77798;SDS011;66989;50.426;15.352;2023-08-17T03:48:00;6.28;;;4.63;;
77798;SDS011;66989;50.426;15.352;2023-08-17T03:50:27;7.22;;;5.70;;
77798;SDS011;66989;50.426;15.352;2023-08-17T03:52:53;5.97;;;4.93;;
77798;SDS011;66989;50.426;15.352;2023-08-17T03:55:18;5.75;;;5.15;;
77798;SDS011;66989;50.426;15.352;2023-08-17T03:57:44;6.35;;;4.97;;
77798;SDS011;66989;50.426;15.352;2023-08-17T04:00:09;6.88;;;5.72;;
77798;SDS011;66989;50.426;15.352;2023-08-17T04:05:01;6.90;;;5.45;;
77798;SDS011;66989;50.426;15.352;2023-08-17T04:07:27;4.90;;;4.18;;
77798;SDS011;66989;50.426;15.352;2023-08-17T04:09:52;5.80;;;4.78;;
77798;SDS011;66989;50.426;15.352;2023-08-17T04:12:18;5.93;;;4.77;;
77798;SDS011;66989;50.426;15.352;2023-08-17T04:14:43;8.50;;;4.80;;
77798;SDS011;66989;50.426;15.352;2023-08-17T04:17:10;6.05;;;4.93;;
77798;SDS011;66989;50.426;15.352;2023-08-17T04:19:35;4.95;;;3.75;;
77798;SDS011;66989;50.426;15.352;2023-08-17T04:22:00;4.87;;;4.10;;
77798;SDS011;66989;50.426;15.352;2023-08-17T04:24:26;6.90;;;4.90;;
77798;SDS011;66989;50.426;15.352;2023-08-17T04:26:51;4.50;;;4.10;;
77798;SDS011;66989;50.426;15.352;2023-08-17T04:29:16;7.50;;;5.67;;
77798;SDS011;66989;50.426;15.352;2023-08-17T04:31:42;4.82;;;4.07;;
77798;SDS011;66989;50.426;15.352;2023-08-17T04:34:07;6.30;;;4.22;;
77798;SDS011;66989;50.426;15.352;2023-08-17T04:36:32;8.30;;;4.47;;
77798;SDS011;66989;50.426;15.352;2023-08-17T04:38:58;8.13;;;5.20;;
77798;SDS011;66989;50.426;15.352;2023-08-17T04:41:23;6.40;;;5.80;;
77798;SDS011;66989;50.426;15.352;2023-08-17T04:43:49;6.35;;;3.80;;
77798;SDS011;66989;50.426;15.352;2023-08-17T04:46:15;6.25;;;4.63;;
77798;SDS011;66989;50.426;15.352;2023-08-17T04:48:40;4.82;;;4.28;;
77798;SDS011;66989;50.426;15.352;2023-08-17T04:51:06;7.03;;;5.07;;
77798;SDS011;66989;50.426;15.352;2023-08-17T04:53:31;6.60;;;5.55;;
77798;SDS011;66989;50.426;15.352;2023-08-17T04:55:58;5.25;;;4.32;;
77798;SDS011;66989;50.426;15.352;2023-08-17T04:58:24;5.07;;;4.53;;
77798;SDS011;66989;50.426;15.352;2023-08-17T05:00:49;5.72;;;5.22;;
77798;SDS011;66989;50.426;15.352;2023-08-17T05:03:15;4.15;;;3.75;;
77798;SDS011;66989;50.426;15.352;2023-08-17T05:05:41;7.53;;;5.35;;
77798;SDS011;66989;50.426;15.352;2023-08-17T05:08:06;5.80;;;4.60;;
77798;SDS011;66989;50.426;15.352;2023-08-17T05:10:33;5.53;;;4.87;;
77798;SDS011;66989;50.426;15.352;2023-08-17T05:12:58;5.82;;;4.80;;
77798;SDS011;66989;50.426;15.352;2023-08-17T05:15:23;6.65;;;4.70;;
77798;SDS011;66989;50.426;15.352;2023-08-17T05:17:49;6.28;;;4.65;;
77798;SDS011;66989;50.426;15.352;2023-08-17T05:20:14;5.03;;;4.50;;
77798;SDS011;66989;50.426;15.352;2023-08-17T05:22:40;5.63;;;4.07;;
77798;SDS011;66989;50.426;15.352;2023-08-17T05:25:05;6.88;;;4.63;;
77798;SDS011;66989;50.426;15.352;2023-08-17T05:27:31;6.40;;;4.65;;
77798;SDS011;66989;50.426;15.352;2023-08-17T05:29:56;5.80;;;4.72;;
77798;SDS011;66989;50.426;15.352;2023-08-17T05:32:22;5.32;;;3.97;;
77798;SDS011;66989;50.426;15.352;2023-08-17T05:34:47;5.25;;;4.65;;
77798;SDS011;66989;50.426;15.352;2023-08-17T05:37:13;5.70;;;4.85;;
77798;SDS011;66989;50.426;15.352;2023-08-17T05:39:40;4.80;;;4.28;;
77798;SDS011;66989;50.426;15.352;2023-08-17T05:42:06;7.80;;;4.85;;
77798;SDS011;66989;50.426;15.352;2023-08-17T05:44:31;4.40;;;3.88;;
77798;SDS011;66989;50.426;15.352;2023-08-17T05:46:57;7.22;;;5.78;;
77798;SDS011;66989;50.426;15.352;2023-08-17T05:49:22;7.18;;;6.38;;
77798;SDS011;66989;50.426;15.352;2023-08-17T05:51:48;7.20;;;4.53;;
77798;SDS011;66989;50.426;15.352;2023-08-17T05:54:13;6.13;;;5.10;;
77798;SDS011;66989;50.426;15.352;2023-08-17T05:56:38;7.30;;;5.43;;
77798;SDS011;66989;50.426;15.352;2023-08-17T05:59:09;6.63;;;5.03;;
77798;SDS011;66989;50.426;15.352;2023-08-17T06:01:35;6.00;;;4.20;;
77798;SDS011;66989;50.426;15.352;2023-08-17T06:04:01;4.82;;;4.32;;
77798;SDS011;66989;50.426;15.352;2023-08-17T06:06:27;4.97;;;4.40;;
77798;SDS011;66989;50.426;15.352;2023-08-17T06:08:52;4.70;;;4.03;;
77798;SDS011;66989;50.426;15.352;2023-08-17T06:11:17;6.80;;;5.38;;
77798;SDS011;66989;50.426;15.352;2023-08-17T06:13:43;5.88;;;5.38;;
77798;SDS011;66989;50.426;15.352;2023-08-17T06:16:08;5.80;;;5.25;;
77798;SDS011;66989;50.426;15.352;2023-08-17T06:18:35;6.78;;;4.68;;
77798;SDS011;66989;50.426;15.352;2023-08-17T06:21:01;6.65;;;5.40;;
77798;SDS011;66989;50.426;15.352;2023-08-17T06:23:26;7.05;;;5.45;;
77798;SDS011;66989;50.426;15.352;2023-08-17T06:25:51;6.68;;;4.28;;
77798;SDS011;66989;50.426;15.352;2023-08-17T06:28:22;4.10;;;3.65;;
77798;SDS011;66989;50.426;15.352;2023-08-17T06:30:47;4.68;;;4.18;;
77798;SDS011;66989;50.426;15.352;2023-08-17T06:33:17;4.45;;;4.05;;
77798;SDS011;66989;50.426;15.352;2023-08-17T06:35:42;4.80;;;3.92;;
77798;SDS011;66989;50.426;15.352;2023-08-17T06:38:08;5.22;;;3.47;;
77798;SDS011;66989;50.426;15.352;2023-08-17T06:40:33;4.82;;;4.13;;
77798;SDS011;66989;50.426;15.352;2023-08-17T06:42:58;5.25;;;4.00;;
77798;SDS011;66989;50.426;15.352;2023-08-17T06:45:24;4.63;;;4.13;;
77798;SDS011;66989;50.426;15.352;2023-08-17T06:47:49;7.70;;;4.72;;
77798;SDS011;66989;50.426;15.352;2023-08-17T06:50:15;5.47;;;4.05;;
77798;SDS011;66989;50.426;15.352;2023-08-17T06:52:40;6.10;;;4.15;;
77798;SDS011;66989;50.426;15.352;2023-08-17T06:55:06;4.60;;;4.00;;
77798;SDS011;66989;50.426;15.352;2023-08-17T06:57:31;4.88;;;3.83;;
77798;SDS011;66989;50.426;15.352;2023-08-17T06:59:57;6.10;;;4.40;;
77798;SDS011;66989;50.426;15.352;2023-08-17T07:02:22;7.20;;;5.70;;
77798;SDS011;66989;50.426;15.352;2023-08-17T07:04:48;6.35;;;4.72;;
77798;SDS011;66989;50.426;15.352;2023-08-17T07:07:13;5.17;;;4.33;;
77798;SDS011;66989;50.426;15.352;2023-08-17T07:09:39;6.43;;;4.07;;
77798;SDS011;66989;50.426;15.352;2023-08-17T07:12:05;4.82;;;4.15;;
77798;SDS011;66989;50.426;15.352;2023-08-17T07:14:30;6.25;;;4.00;;
77798;SDS011;66989;50.426;15.352;2023-08-17T07:16:56;6.72;;;4.15;;
77798;SDS011;66989;50.426;15.352;2023-08-17T07:19:21;7.72;;;5.60;;
77798;SDS011;66989;50.426;15.352;2023-08-17T07:21:47;5.20;;;4.70;;
77798;SDS011;66989;50.426;15.352;2023-08-17T07:24:13;4.70;;;3.92;;
77798;SDS011;66989;50.426;15.352;2023-08-17T07:26:40;6.05;;;4.93;;
77798;SDS011;66989;50.426;15.352;2023-08-17T07:29:05;8.48;;;4.97;;
77798;SDS011;66989;50.426;15.352;2023-08-17T07:31:31;5.07;;;4.68;;
77798;SDS011;66989;50.426;15.352;2023-08-17T07:33:58;5.90;;;4.68;;
77798;SDS011;66989;50.426;15.352;2023-08-17T07:36:24;6.38;;;5.88;;
77798;SDS011;66989;50.426;15.352;2023-08-17T07:38:49;4.90;;;4.40;;
77798;SDS011;66989;50.426;15.352;2023-08-17T07:41:14;6.50;;;4.75;;
77798;SDS011;66989;50.426;15.352;2023-08-17T07:43:40;5.60;;;5.05;;
77798;SDS011;66989;50.426;15.352;2023-08-17T07:46:05;5.87;;;4.87;;
77798;SDS011;66989;50.426;15.352;2023-08-17T07:48:30;6.22;;;5.63;;
77798;SDS011;66989;50.426;15.352;2023-08-17T07:50:59;6.57;;;4.50;;
77798;SDS011;66989;50.426;15.352;2023-08-17T07:53:25;9.95;;;5.72;;
77798;SDS011;66989;50.426;15.352;2023-08-17T07:55:50;5.00;;;4.53;;
77798;SDS011;66989;50.426;15.352;2023-08-17T07:58:16;6.10;;;4.95;;
77798;SDS011;66989;50.426;15.352;2023-08-17T08:00:41;4.88;;;4.38;;
77798;SDS011;66989;50.426;15.352;2023-08-17T08:05:32;6.17;;;5.27;;
77798;SDS011;66989;50.426;15.352;2023-08-17T08:07:57;6.85;;;5.03;;
77798;SDS011;66989;50.426;15.352;2023-08-17T08:10:23;6.07;;;5.10;;
77798;SDS011;66989;50.426;15.352;2023-08-17T08:12:48;6.18;;;5.57;;
77798;SDS011;66989;50.426;15.352;2023-08-17T08:17:39;6.00;;;5.37;;
77798;SDS011;66989;50.426;15.352;2023-08-17T08:20:04;6.38;;;5.18;;
77798;SDS011;66989;50.426;15.352;2023-08-17T08:24:55;6.03;;;5.13;;
77798;SDS011;66989;50.426;15.352;2023-08-17T08:27:21;7.07;;;5.20;;
77798;SDS011;66989;50.426;15.352;2023-08-17T08:32:12;5.97;;;5.47;;
77798;SDS011;66989;50.426;15.352;2023-08-17T08:37:02;7.80;;;6.17;;
77798;SDS011;66989;50.426;15.352;2023-08-17T08:39:28;8.65;;;4.82;;
77798;SDS011;66989;50.426;15.352;2023-08-17T08:44:19;5.85;;;5.25;;
77798;SDS011;66989;50.426;15.352;2023-08-17T08:49:10;5.75;;;5.00;;
77798;SDS011;66989;50.426;15.352;2023-08-17T08:51:38;6.07;;;5.55;;
77798;SDS011;66989;50.426;15.352;2023-08-17T08:54:10;5.72;;;4.93;;
77798;SDS011;66989;50.426;15.352;2023-08-17T08:56:38;6.45;;;5.85;;
77798;SDS011;66989;50.426;15.352;2023-08-17T08:59:06;5.40;;;4.90;;
77798;SDS011;66989;50.426;15.352;2023-08-17T09:01:33;6.25;;;5.65;;
77798;SDS011;66989;50.426;15.352;2023-08-17T09:06:26;5.88;;;5.25;;
77798;SDS011;66989;50.426;15.352;2023-08-17T09:08:52;9.30;;;5.50;;
77798;SDS011;66989;50.426;15.352;2023-08-17T09:11:18;7.10;;;6.07;;
77798;SDS011;66989;50.426;15.352;2023-08-17T09:16:09;6.07;;;5.57;;
77798;SDS011;66989;50.426;15.352;2023-08-17T09:18:34;8.13;;;6.57;;
77798;SDS011;66989;50.426;15.352;2023-08-17T09:21:00;6.53;;;6.00;;
77798;SDS011;66989;50.426;15.352;2023-08-17T09:23:26;8.77;;;7.40;;
77798;SDS011;66989;50.426;15.352;2023-08-17T09:25:52;7.15;;;6.50;;
77798;SDS011;66989;50.426;15.352;2023-08-17T09:28:22;7.70;;;7.07;;
77798;SDS011;66989;50.426;15.352;2023-08-17T09:33:27;7.50;;;6.80;;
77798;SDS011;66989;50.426;15.352;2023-08-17T09:35:54;7.15;;;6.53;;
77798;SDS011;66989;50.426;15.352;2023-08-17T09:38:20;8.45;;;7.00;;
77798;SDS011;66989;50.426;15.352;2023-08-17T09:43:15;9.20;;;7.85;;
77798;SDS011;66989;50.426;15.352;2023-08-17T09:45:42;7.88;;;7.05;;
77798;SDS011;66989;50.426;15.352;2023-08-17T09:48:10;7.63;;;7.03;;
77798;SDS011;66989;50.426;15.352;2023-08-17T09:50:36;8.77;;;7.88;;
77798;SDS011;66989;50.426;15.352;2023-08-17T09:53:04;8.15;;;6.82;;
77798;SDS011;66989;50.426;15.352;2023-08-17T09:55:30;7.55;;;6.85;;
77798;SDS011;66989;50.426;15.352;2023-08-17T09:58:02;8.50;;;7.40;;
77798;SDS011;66989;50.426;15.352;2023-08-17T10:00:28;10.05;;;7.55;;
77798;SDS011;66989;50.426;15.352;2023-08-17T10:02:55;10.05;;;9.07;;
77798;SDS011;66989;50.426;15.352;2023-08-17T10:05:23;8.00;;;7.30;;
77798;SDS011;66989;50.426;15.352;2023-08-17T10:07:53;8.40;;;7.68;;
77798;SDS011;66989;50.426;15.352;2023-08-17T10:10:22;9.52;;;7.85;;
77798;SDS011;66989;50.426;15.352;2023-08-17T10:19:01;9.07;;;7.25;;
77798;SDS011;66989;50.426;15.352;2023-08-17T10:21:46;9.88;;;8.55;;
77798;SDS011;66989;50.426;15.352;2023-08-17T10:24:16;7.35;;;6.65;;
77798;SDS011;66989;50.426;15.352;2023-08-17T10:26:43;8.38;;;7.57;;
77798;SDS011;66989;50.426;15.352;2023-08-17T10:29:09;10.25;;;7.70;;
77798;SDS011;66989;50.426;15.352;2023-08-17T10:31:35;8.73;;;7.93;;
77798;SDS011;66989;50.426;15.352;2023-08-17T10:34:01;8.98;;;7.05;;
77798;SDS011;66989;50.426;15.352;2023-08-17T10:36:27;8.40;;;7.60;;
77798;SDS011;66989;50.426;15.352;2023-08-17T10:41:47;7.60;;;6.90;;
77798;SDS011;66989;50.426;15.352;2023-08-17T10:44:13;7.60;;;6.90;;
77798;SDS011;66989;50.426;15.352;2023-08-17T10:46:38;7.78;;;6.85;;
77798;SDS011;66989;50.426;15.352;2023-08-17T10:49:25;6.95;;;6.00;;
77798;SDS011;66989;50.426;15.352;2023-08-17T10:52:04;7.22;;;6.53;;
77798;SDS011;66989;50.426;15.352;2023-08-17T10:54:39;8.43;;;7.72;;
77798;SDS011;66989;50.426;15.352;2023-08-17T11:02:55;11.38;;;6.47;;
77798;SDS011;66989;50.426;15.352;2023-08-17T11:05:43;7.13;;;6.43;;
77798;SDS011;66989;50.426;15.352;2023-08-17T11:10:57;7.13;;;6.43;;
77798;SDS011;66989;50.426;15.352;2023-08-17T11:13:35;5.40;;;4.90;;
77798;SDS011;66989;50.426;15.352;2023-08-17T11:16:02;6.22;;;5.63;;
77798;SDS011;66989;50.426;15.352;2023-08-17T11:18:28;6.95;;;6.30;;
77798;SDS011;66989;50.426;15.352;2023-08-17T11:20:54;7.43;;;5.88;;
77798;SDS011;66989;50.426;15.352;2023-08-17T11:23:20;7.10;;;5.43;;
77798;SDS011;66989;50.426;15.352;2023-08-17T11:25:47;5.95;;;5.45;;
77798;SDS011;66989;50.426;15.352;2023-08-17T11:28:13;6.47;;;5.45;;
77798;SDS011;66989;50.426;15.352;2023-08-17T11:30:41;7.97;;;6.32;;
77798;SDS011;66989;50.426;15.352;2023-08-17T11:33:07;6.20;;;5.68;;
77798;SDS011;66989;50.426;15.352;2023-08-17T11:35:33;5.70;;;5.20;;
77798;SDS011;66989;50.426;15.352;2023-08-17T11:37:59;5.93;;;5.40;;
77798;SDS011;66989;50.426;15.352;2023-08-17T11:40:25;7.03;;;4.68;;
77798;SDS011;66989;50.426;15.352;2023-08-17T11:42:51;6.78;;;4.63;;
77798;SDS011;66989;50.426;15.352;2023-08-17T11:45:17;6.60;;;6.00;;
77798;SDS011;66989;50.426;15.352;2023-08-17T11:47:43;5.32;;;4.82;;
77798;SDS011;66989;50.426;15.352;2023-08-17T11:50:09;6.40;;;4.88;;
77798;SDS011;66989;50.426;15.352;2023-08-17T11:52:36;9.13;;;6.20;;
77798;SDS011;66989;50.426;15.352;2023-08-17T11:55:05;5.95;;;5.13;;
77798;SDS011;66989;50.426;15.352;2023-08-17T11:57:32;6.53;;;6.00;;
77798;SDS011;66989;50.426;15.352;2023-08-17T11:59:58;6.43;;;5.72;;
77798;SDS011;66989;50.426;15.352;2023-08-17T12:02:25;7.07;;;5.88;;
77798;SDS011;66989;50.426;15.352;2023-08-17T12:04:52;6.32;;;5.82;;
77798;SDS011;66989;50.426;15.352;2023-08-17T12:07:18;5.80;;;5.30;;
77798;SDS011;66989;50.426;15.352;2023-08-17T12:09:47;5.55;;;5.15;;
77798;SDS011;66989;50.426;15.352;2023-08-17T12:12:16;7.32;;;6.03;;
77798;SDS011;66989;50.426;15.352;2023-08-17T12:14:42;7.10;;;5.53;;
77798;SDS011;66989;50.426;15.352;2023-08-17T12:17:13;9.10;;;5.97;;
77798;SDS011;66989;50.426;15.352;2023-08-17T12:19:42;6.13;;;5.53;;
77798;SDS011;66989;50.426;15.352;2023-08-17T12:22:08;7.18;;;5.13;;
77798;SDS011;66989;50.426;15.352;2023-08-17T12:24:34;6.70;;;5.97;;
77798;SDS011;66989;50.426;15.352;2023-08-17T12:27:04;7.85;;;5.50;;
77798;SDS011;66989;50.426;15.352;2023-08-17T12:29:33;6.32;;;5.72;;
77798;SDS011;66989;50.426;15.352;2023-08-17T12:31:58;7.03;;;6.32;;
77798;SDS011;66989;50.426;15.352;2023-08-17T12:34:27;6.40;;;5.63;;
77798;SDS011;66989;50.426;15.352;2023-08-17T12:36:52;6.00;;;5.05;;
77798;SDS011;66989;50.426;15.352;2023-08-17T12:39:18;7.43;;;6.43;;
77798;SDS011;66989;50.426;15.352;2023-08-17T12:41:43;7.22;;;6.07;;
77798;SDS011;66989;50.426;15.352;2023-08-17T12:44:09;6.93;;;6.22;;
77798;SDS011;66989;50.426;15.352;2023-08-17T12:46:38;7.40;;;5.47;;
77798;SDS011;66989;50.426;15.352;2023-08-17T12:49:06;6.13;;;5.10;;
77798;SDS011;66989;50.426;15.352;2023-08-17T12:53:57;13.10;;;5.97;;
77798;SDS011;66989;50.426;15.352;2023-08-17T12:58:48;6.50;;;5.57;;
77798;SDS011;66989;50.426;15.352;2023-08-17T13:01:13;7.32;;;6.40;;
77798;SDS011;66989;50.426;15.352;2023-08-17T13:03:39;5.68;;;5.10;;
77798;SDS011;66989;50.426;15.352;2023-08-17T13:06:04;5.47;;;5.05;;
77798;SDS011;66989;50.426;15.352;2023-08-17T13:08:30;6.57;;;5.97;;
77798;SDS011;66989;50.426;15.352;2023-08-17T13:13:21;6.75;;;5.53;;
77798;SDS011;66989;50.426;15.352;2023-08-17T13:15:46;6.68;;;5.43;;
77798;SDS011;66989;50.426;15.352;2023-08-17T13:18:11;7.03;;;6.07;;
77798;SDS011;66989;50.426;15.352;2023-08-17T13:23:03;7.60;;;6.85;;
77798;SDS011;66989;50.426;15.352;2023-08-17T13:27:54;8.30;;;7.47;;
77798;SDS011;66989;50.426;15.352;2023-08-17T13:32:45;6.90;;;6.27;;
77798;SDS011;66989;50.426;15.352;2023-08-17T13:35:10;9.80;;;6.28;;
77798;SDS011;66989;50.426;15.352;2023-08-17T13:37:36;7.93;;;6.80;;
77798;SDS011;66989;50.426;15.352;2023-08-17T13:40:03;6.35;;;5.80;;
77798;SDS011;66989;50.426;15.352;2023-08-17T13:42:29;6.63;;;5.80;;
77798;SDS011;66989;50.426;15.352;2023-08-17T13:47:20;6.63;;;6.03;;
77798;SDS011;66989;50.426;15.352;2023-08-17T13:49:45;6.27;;;5.73;;
77798;SDS011;66989;50.426;15.352;2023-08-17T13:54:36;6.27;;;5.67;;
77798;SDS011;66989;50.426;15.352;2023-08-17T13:59:27;7.20;;;6.23;;
77798;SDS011;66989;50.426;15.352;2023-08-17T14:01:52;7.78;;;5.85;;
77798;SDS011;66989;50.426;15.352;2023-08-17T14:06:43;9.80;;;6.35;;
77798;SDS011;66989;50.426;15.352;2023-08-17T14:11:34;6.57;;;5.97;;
77798;SDS011;66989;50.426;15.352;2023-08-17T14:13:59;6.82;;;5.80;;
77798;SDS011;66989;50.426;15.352;2023-08-17T14:18:50;10.73;;;6.13;;
77798;SDS011;66989;50.426;15.352;2023-08-17T14:23:41;8.77;;;5.73;;
77798;SDS011;66989;50.426;15.352;2023-08-17T14:28:32;6.70;;;5.90;;
77798;SDS011;66989;50.426;15.352;2023-08-17T14:33:22;7.20;;;6.57;;
77798;SDS011;66989;50.426;15.352;2023-08-17T14:38:13;10.70;;;4.55;;
77798;SDS011;66989;50.426;15.352;2023-08-17T14:43:08;5.53;;;3.78;;
77798;SDS011;66989;50.426;15.352;2023-08-17T14:45:35;5.13;;;3.97;;
77798;SDS011;66989;50.426;15.352;2023-08-17T14:48:00;7.35;;;6.43;;
77798;SDS011;66989;50.426;15.352;2023-08-17T14:50:27;6.63;;;6.03;;
77798;SDS011;66989;50.426;15.352;2023-08-17T14:52:52;8.77;;;4.63;;
77798;SDS011;66989;50.426;15.352;2023-08-17T14:57:43;5.20;;;4.25;;
77798;SDS011;66989;50.426;15.352;2023-08-17T15:00:09;5.95;;;4.30;;
77798;SDS011;66989;50.426;15.352;2023-08-17T15:02:34;5.57;;;4.38;;
77798;SDS011;66989;50.426;15.352;2023-08-17T15:05:00;6.57;;;4.30;;
77798;SDS011;66989;50.426;15.352;2023-08-17T15:09:50;6.43;;;5.17;;
77798;SDS011;66989;50.426;15.352;2023-08-17T15:12:15;4.68;;;4.05;;
77798;SDS011;66989;50.426;15.352;2023-08-17T15:14:41;5.85;;;4.32;;
77798;SDS011;66989;50.426;15.352;2023-08-17T15:17:09;6.03;;;3.88;;
77798;SDS011;66989;50.426;15.352;2023-08-17T15:19:37;4.20;;;3.80;;
77798;SDS011;66989;50.426;15.352;2023-08-17T15:22:03;6.95;;;4.40;;
77798;SDS011;66989;50.426;15.352;2023-08-17T15:24:29;9.05;;;3.88;;
77798;SDS011;66989;50.426;15.352;2023-08-17T15:26:54;7.43;;;2.72;;
77798;SDS011;66989;50.426;15.352;2023-08-17T15:29:20;10.75;;;3.33;;
77798;SDS011;66989;50.426;15.352;2023-08-17T15:31:46;12.27;;;3.58;;
77798;SDS011;66989;50.426;15.352;2023-08-17T15:34:11;6.10;;;4.60;;
77798;SDS011;66989;50.426;15.352;2023-08-17T15:36:38;4.53;;;2.88;;
77798;SDS011;66989;50.426;15.352;2023-08-17T15:39:03;6.00;;;3.17;;
77798;SDS011;66989;50.426;15.352;2023-08-17T15:41:34;8.57;;;4.50;;
77798;SDS011;66989;50.426;15.352;2023-08-17T15:43:59;10.77;;;3.70;;
77798;SDS011;66989;50.426;15.352;2023-08-17T15:46:24;4.97;;;3.70;;
77798;SDS011;66989;50.426;15.352;2023-08-17T15:48:55;7.82;;;4.00;;
77798;SDS011;66989;50.426;15.352;2023-08-17T15:51:21;7.40;;;4.60;;
77798;SDS011;66989;50.426;15.352;2023-08-17T15:53:48;6.70;;;5.57;;
77798;SDS011;66989;50.426;15.352;2023-08-17T15:56:13;10.15;;;7.28;;
77798;SDS011;66989;50.426;15.352;2023-08-17T15:58:39;6.22;;;5.63;;
77798;SDS011;66989;50.426;15.352;2023-08-17T16:01:17;6.50;;;4.70;;
77798;SDS011;66989;50.426;15.352;2023-08-17T16:03:43;12.02;;;4.72;;